Time;durP1;ratioP1;P1;durP2;ratioP2;P2;SDS_P1;SDS_P2;PMS_P1;PMS_P2;Temp;Humidity;BMP_temperature;BMP_pressure;BME280_temperature;BME280_humidity;BME280_pressure;Samples;Min_cycle;Max_cycle;Signal;HPM_P1;HPM_P2
2021/05/01 00:00:29;;;;;;;25.67;11.43;;;17.50;99.10;;;;;;5072713;28;20423;-68
2021/05/01 00:02:55;;;;;;;28.88;12.63;;;17.50;99.10;;;;;;5054664;28;20056;-69
2021/05/01 00:05:21;;;;;;;22.65;10.05;;;17.40;99.40;;;;;;5054668;28;20377;-68
2021/05/01 00:07:47;;;;;;;25.48;10.18;;;17.30;99.40;;;;;;5054506;28;20028;-70
2021/05/01 00:10:13;;;;;;;23.40;9.95;;;17.30;99.50;;;;;;5072617;28;20020;-68
2021/05/01 00:12:40;;;;;;;15.13;7.00;;;17.20;99.90;;;;;;5072580;28;20518;-69
2021/05/01 00:15:08;;;;;;;16.38;7.53;;;17.10;99.90;;;;;;5054642;28;20086;-66
2021/05/01 00:17:34;;;;;;;16.25;8.02;;;17.10;99.90;;;;;;5072439;28;20029;-70
2021/05/01 00:19:59;;;;;;;19.88;10.75;;;17.00;99.90;;;;;;5076217;28;20108;-68
2021/05/01 00:22:25;;;;;;;20.25;10.18;;;17.00;99.90;;;;;;5058248;28;20071;-66
2021/05/01 00:24:51;;;;;;;23.65;11.20;;;16.90;99.90;;;;;;5058281;28;20033;-67
2021/05/01 00:27:17;;;;;;;20.13;8.90;;;16.90;99.90;;;;;;5075740;28;20036;-68
2021/05/01 00:29:43;;;;;;;15.07;8.50;;;16.90;99.90;;;;;;5075771;28;20032;-69
2021/05/01 00:32:09;;;;;;;19.33;9.52;;;16.90;99.90;;;;;;5076352;28;20083;-68
2021/05/01 00:34:34;;;;;;;15.50;8.80;;;16.80;99.90;;;;;;5075915;28;20024;-70
2021/05/01 00:37:02;;;;;;;13.18;8.48;;;16.80;99.90;;;;;;5057957;28;20064;-70
2021/05/01 00:39:28;;;;;;;15.25;8.45;;;16.80;99.90;;;;;;5075915;28;20035;-68
2021/05/01 00:41:54;;;;;;;22.92;7.95;;;16.90;99.90;;;;;;5075914;28;20033;-66
2021/05/01 00:44:19;;;;;;;15.23;7.70;;;16.80;99.90;;;;;;5075900;28;20033;-68
2021/05/01 00:46:46;;;;;;;14.50;6.93;;;16.90;99.90;;;;;;5057830;28;20361;-69
2021/05/01 00:49:11;;;;;;;15.82;7.22;;;16.80;99.90;;;;;;5075679;28;20107;-72
2021/05/01 00:51:38;;;;;;;17.80;7.22;;;16.80;99.90;;;;;;5075699;28;20508;-66
2021/05/01 00:54:04;;;;;;;19.00;8.48;;;16.80;99.90;;;;;;5075510;28;20045;-68
2021/05/01 00:56:30;;;;;;;12.68;7.28;;;16.80;99.90;;;;;;5075686;28;20362;-68
2021/05/01 00:58:57;;;;;;;15.40;7.50;;;16.80;99.90;;;;;;5057446;28;20447;-67
2021/05/01 01:01:25;;;;;;;16.92;7.57;;;16.80;99.90;;;;;;5057643;28;20381;-67
2021/05/01 01:03:51;;;;;;;16.67;7.93;;;16.80;99.90;;;;;;5057463;28;20021;-70
2021/05/01 01:06:17;;;;;;;17.67;7.03;;;16.80;99.90;;;;;;5075457;28;20024;-69
2021/05/01 01:08:45;;;;;;;11.88;5.45;;;16.80;99.90;;;;;;5075318;28;20472;-66
2021/05/01 01:11:12;;;;;;;9.27;5.82;;;16.80;99.90;;;;;;5075388;28;20048;-70
2021/05/01 01:13:39;;;;;;;14.02;6.45;;;16.80;99.90;;;;;;5075364;28;20020;-70
2021/05/01 01:16:05;;;;;;;14.85;6.68;;;16.80;99.90;;;;;;5075378;28;20035;-70
2021/05/01 01:18:32;;;;;;;11.45;6.38;;;16.80;99.90;;;;;;5075004;28;20389;-70
2021/05/01 01:21:00;;;;;;;17.45;6.03;;;16.80;99.90;;;;;;5075165;28;20034;-70
2021/05/01 01:23:27;;;;;;;13.23;6.15;;;16.80;99.90;;;;;;5075187;28;20060;-70
2021/05/01 01:25:57;;;;;;;15.68;7.03;;;16.80;99.90;;;;;;5057184;28;20025;-69
2021/05/01 01:28:25;;;;;;;13.45;6.72;;;16.70;99.90;;;;;;5074778;28;20044;-71
2021/05/01 01:30:50;;;;;;;14.05;6.43;;;16.60;99.90;;;;;;5075009;28;20497;-70
2021/05/01 01:33:16;;;;;;;15.80;6.60;;;16.50;99.90;;;;;;5056928;28;20127;-69
2021/05/01 01:35:42;;;;;;;16.30;7.68;;;16.50;99.90;;;;;;5074955;28;20107;-71
2021/05/01 01:38:08;;;;;;;19.42;9.65;;;16.30;99.90;;;;;;5074824;28;20082;-70
2021/05/01 01:40:38;;;;;;;16.83;8.25;;;16.30;99.90;;;;;;5074554;28;20029;-69
2021/05/01 01:43:05;;;;;;;16.27;9.98;;;16.20;99.90;;;;;;5074827;28;20074;-69
2021/05/01 01:45:31;;;;;;;21.52;10.75;;;16.20;99.90;;;;;;5056808;28;20049;-70
2021/05/01 01:47:58;;;;;;;22.50;11.25;;;16.20;99.90;;;;;;5074591;28;20039;-69
2021/05/01 01:50:25;;;;;;;23.30;12.27;;;16.20;99.90;;;;;;5074315;28;20024;-66
2021/05/01 01:52:51;;;;;;;18.10;10.95;;;16.30;99.90;;;;;;5074546;28;20025;-68
2021/05/01 01:55:19;;;;;;;19.23;10.95;;;16.30;99.90;;;;;;5074024;28;20534;-67
2021/05/01 01:57:46;;;;;;;23.70;12.25;;;16.30;99.90;;;;;;5056204;28;20040;-69
2021/05/01 02:00:22;;;;;;;22.42;12.40;;;16.30;99.90;;;;;;5056415;28;20036;-69
2021/05/01 02:02:48;;;;;;;34.33;12.23;;;16.40;99.90;;;;;;5056414;28;20388;-69
2021/05/01 02:05:16;;;;;;;19.25;9.73;;;16.30;99.90;;;;;;5074375;28;20036;-67
2021/05/01 02:07:43;;;;;;;15.60;9.90;;;16.40;99.90;;;;;;5056201;28;20033;-67
2021/05/01 02:10:11;;;;;;;28.23;12.60;;;16.40;99.90;;;;;;5074225;28;20143;-69
2021/05/01 02:12:38;;;;;;;26.48;11.00;;;16.40;99.90;;;;;;5056171;28;20035;-70
2021/05/01 02:15:10;;;;;;;27.77;9.02;;;16.40;99.90;;;;;;5074166;28;20024;-70
2021/05/01 02:17:40;;;;;;;19.45;9.07;;;16.40;99.90;;;;;;5074106;28;20036;-69
2021/05/01 02:20:07;;;;;;;17.08;8.43;;;16.30;99.90;;;;;;5074091;28;20107;-68
2021/05/01 02:22:34;;;;;;;16.92;9.05;;;16.30;99.90;;;;;;5073911;28;20028;-69
2021/05/01 02:25:00;;;;;;;19.27;9.10;;;16.20;99.90;;;;;;5055999;28;20123;-67
2021/05/01 02:27:26;;;;;;;14.30;8.50;;;16.20;99.90;;;;;;5073815;28;20047;-69
2021/05/01 02:29:53;;;;;;;18.83;8.60;;;16.20;99.90;;;;;;5073814;28;20480;-68
2021/05/01 02:32:19;;;;;;;17.60;9.15;;;16.20;99.90;;;;;;5073723;28;20039;-68
2021/05/01 02:34:44;;;;;;;21.95;10.50;;;16.20;99.90;;;;;;5073793;28;20021;-71
2021/05/01 02:37:10;;;;;;;20.15;11.20;;;16.10;99.90;;;;;;5073683;28;20067;-71
2021/05/01 02:39:36;;;;;;;28.45;11.30;;;16.20;99.90;;;;;;5055377;28;20388;-67
2021/05/01 02:42:02;;;;;;;32.25;14.63;;;16.20;99.90;;;;;;5072831;28;20119;-68
2021/05/01 02:44:28;;;;;;;30.00;12.60;;;16.20;99.90;;;;;;5073567;28;20100;-71
2021/05/01 02:46:54;;;;;;;26.67;12.45;;;16.20;99.90;;;;;;5073628;28;20107;-69
2021/05/01 02:49:20;;;;;;;29.42;12.02;;;16.30;99.90;;;;;;5073385;28;20040;-70
2021/05/01 02:51:46;;;;;;;24.92;12.35;;;16.30;99.90;;;;;;5073185;28;20480;-66
2021/05/01 02:54:12;;;;;;;26.42;12.63;;;16.20;99.90;;;;;;5073430;28;20149;-67
2021/05/01 02:56:37;;;;;;;24.83;12.40;;;16.20;99.90;;;;;;5073641;28;20559;-69
2021/05/01 02:59:03;;;;;;;24.60;12.35;;;16.20;99.90;;;;;;5073388;28;20037;-67
2021/05/01 03:01:29;;;;;;;24.85;13.13;;;16.10;99.90;;;;;;5073348;28;20032;-67
2021/05/01 03:03:55;;;;;;;27.00;12.15;;;16.10;99.90;;;;;;5073350;28;20142;-68
2021/05/01 03:06:21;;;;;;;18.65;10.45;;;16.10;99.90;;;;;;5073338;28;20056;-71
2021/05/01 03:08:47;;;;;;;19.05;10.55;;;16.10;99.90;;;;;;5073188;28;20122;-72
2021/05/01 03:11:12;;;;;;;19.50;10.90;;;16.10;99.90;;;;;;5073222;28;20032;-68
2021/05/01 03:13:38;;;;;;;20.20;12.75;;;16.00;99.90;;;;;;5053729;28;20025;-69
2021/05/01 03:16:04;;;;;;;27.05;12.85;;;16.00;99.90;;;;;;5053737;28;20495;-69
2021/05/01 03:18:30;;;;;;;21.42;12.88;;;15.90;99.90;;;;;;5053764;28;20461;-68
2021/05/01 03:20:56;;;;;;;25.33;12.00;;;15.90;99.90;;;;;;5053627;28;20025;-70
2021/05/01 03:23:22;;;;;;;18.88;10.98;;;16.00;99.90;;;;;;5071744;28;20027;-69
2021/05/01 03:25:48;;;;;;;18.65;10.73;;;16.00;99.90;;;;;;5071719;28;20031;-68
2021/05/01 03:28:14;;;;;;;17.13;10.50;;;16.00;99.90;;;;;;5053344;28;20033;-70
2021/05/01 03:30:40;;;;;;;14.82;8.40;;;16.00;99.90;;;;;;5053529;28;20024;-68
2021/05/01 03:33:06;;;;;;;168.20;15.35;;;15.90;99.90;;;;;;5071847;28;20420;-68
2021/05/01 03:35:31;;;;;;;60.88;11.35;;;15.90;99.90;;;;;;5053508;28;20024;-68
2021/05/01 03:37:57;;;;;;;43.13;11.40;;;16.00;99.90;;;;;;5071631;28;20484;-69
2021/05/01 03:40:23;;;;;;;21.27;9.10;;;16.00;99.90;;;;;;5053522;28;20043;-68
2021/05/01 03:42:49;;;;;;;19.90;9.05;;;15.90;99.90;;;;;;5068975;28;20024;-70
2021/05/01 03:45:15;;;;;;;23.95;8.32;;;15.90;99.90;;;;;;5071678;28;20020;-69
2021/05/01 03:47:41;;;;;;;15.50;8.50;;;15.90;99.90;;;;;;5053381;28;20119;-68
2021/05/01 03:50:08;;;;;;;20.02;9.60;;;16.00;99.90;;;;;;5053396;28;20120;-72
2021/05/01 03:52:35;;;;;;;18.27;9.32;;;15.90;99.90;;;;;;5054946;28;20461;-68
2021/05/01 03:55:01;;;;;;;13.65;9.48;;;15.90;99.90;;;;;;5075426;28;20044;-68
2021/05/01 03:57:27;;;;;;;15.05;10.35;;;15.90;99.90;;;;;;5075422;28;20029;-70
2021/05/01 03:59:55;;;;;;;19.88;11.13;;;15.80;99.90;;;;;;5075298;28;20033;-69
2021/05/01 04:02:21;;;;;;;19.10;11.35;;;15.80;99.90;;;;;;5075288;28;20085;-69
2021/05/01 04:04:47;;;;;;;20.00;11.48;;;15.80;99.90;;;;;;5075217;28;20025;-70
2021/05/01 04:07:13;;;;;;;21.67;11.98;;;15.70;99.90;;;;;;5075182;28;20366;-68
2021/05/01 04:09:39;;;;;;;20.25;11.07;;;15.70;99.90;;;;;;5075247;28;20025;-67
2021/05/01 04:12:06;;;;;;;24.33;10.45;;;15.80;99.90;;;;;;5075335;28;20103;-67
2021/05/01 04:14:32;;;;;;;38.92;12.32;;;15.80;99.90;;;;;;5075174;28;20472;-68
2021/05/01 04:16:58;;;;;;;26.42;10.27;;;15.90;99.90;;;;;;5057042;28;20052;-67
2021/05/01 04:19:23;;;;;;;23.27;10.35;;;15.90;99.90;;;;;;5074986;28;20033;-70
2021/05/01 04:21:49;;;;;;;23.45;11.05;;;15.90;99.90;;;;;;5072289;28;20028;-68
2021/05/01 04:24:15;;;;;;;25.52;11.65;;;16.00;99.90;;;;;;5074832;28;20021;-69
2021/05/01 04:26:41;;;;;;;23.60;10.20;;;16.00;99.90;;;;;;5074940;28;20086;-67
2021/05/01 04:29:07;;;;;;;28.63;11.20;;;16.00;99.90;;;;;;5074730;28;20044;-68
2021/05/01 04:31:33;;;;;;;18.33;10.40;;;16.00;99.90;;;;;;5074764;28;20449;-70
2021/05/01 04:33:59;;;;;;;18.02;9.80;;;16.00;99.90;;;;;;5074753;28;20024;-69
2021/05/01 04:36:24;;;;;;;18.65;10.40;;;16.10;99.90;;;;;;5074628;28;20037;-67
2021/05/01 04:38:50;;;;;;;22.48;10.77;;;16.10;99.90;;;;;;5074700;28;20024;-71
2021/05/01 04:41:16;;;;;;;20.83;10.23;;;16.20;99.90;;;;;;5074599;28;20107;-69
2021/05/01 04:43:44;;;;;;;16.38;9.32;;;16.20;99.90;;;;;;5056376;28;20028;-69
2021/05/01 04:46:14;;;;;;;25.13;10.60;;;16.20;99.90;;;;;;5054099;28;20365;-67
2021/05/01 04:48:40;;;;;;;21.73;9.63;;;16.20;99.90;;;;;;5074478;28;20112;-70
2021/05/01 04:51:06;;;;;;;24.25;9.73;;;16.20;99.90;;;;;;5056379;28;20020;-66
2021/05/01 04:53:32;;;;;;;23.08;10.38;;;16.20;99.90;;;;;;5056363;28;20461;-66
2021/05/01 04:55:58;;;;;;;20.95;10.15;;;16.20;99.90;;;;;;5052694;28;20062;-66
2021/05/01 04:58:23;;;;;;;20.30;10.90;;;16.20;99.90;;;;;;5054412;28;20032;-67
2021/05/01 05:00:49;;;;;;;18.67;9.25;;;16.30;99.90;;;;;;5051429;28;20508;-69
2021/05/01 05:03:15;;;;;;;17.75;9.65;;;16.30;99.90;;;;;;5053978;28;20071;-68
2021/05/01 05:05:41;;;;;;;14.35;8.80;;;16.30;99.90;;;;;;5052389;28;20025;-69
2021/05/01 05:08:10;;;;;;;18.48;8.68;;;16.40;99.90;;;;;;5054028;28;20033;-69
2021/05/01 05:10:36;;;;;;;15.90;8.13;;;16.50;99.90;;;;;;5052717;28;20053;-66
2021/05/01 05:13:02;;;;;;;11.38;8.18;;;16.60;99.90;;;;;;5053992;28;20060;-68
2021/05/01 05:15:28;;;;;;;15.75;9.18;;;16.60;99.90;;;;;;5052713;28;20036;-69
2021/05/01 05:17:54;;;;;;;17.50;9.15;;;16.60;99.90;;;;;;5054678;28;20382;-68
2021/05/01 05:20:20;;;;;;;17.42;10.05;;;16.60;99.90;;;;;;5055219;28;20028;-71
2021/05/01 05:22:46;;;;;;;16.58;9.25;;;16.60;99.90;;;;;;5055131;28;20032;-70
2021/05/01 05:25:12;;;;;;;12.73;9.93;;;16.70;99.90;;;;;;5053768;28;20029;-69
2021/05/01 05:27:38;;;;;;;20.02;10.98;;;16.70;99.90;;;;;;5055034;28;20044;-67
2021/05/01 05:30:05;;;;;;;28.92;14.15;;;16.80;99.90;;;;;;5052633;28;20389;-72
2021/05/01 05:32:31;;;;;;;21.67;11.35;;;16.80;99.90;;;;;;5053102;28;20024;-69
2021/05/01 05:34:57;;;;;;;23.30;11.10;;;16.90;99.90;;;;;;5054161;28;20403;-67
2021/05/01 05:37:22;;;;;;;18.88;9.93;;;16.90;99.90;;;;;;5053645;28;20040;-69
2021/05/01 05:39:50;;;;;;;16.45;10.15;;;17.00;99.90;;;;;;5055153;28;20078;-69
2021/05/01 05:42:18;;;;;;;18.15;10.43;;;17.10;99.90;;;;;;5053542;28;20044;-70
2021/05/01 05:44:46;;;;;;;19.75;9.45;;;17.20;99.90;;;;;;5054767;28;20108;-72
2021/05/01 05:47:13;;;;;;;24.10;9.98;;;17.30;99.90;;;;;;5054670;28;20372;-70
2021/05/01 05:49:39;;;;;;;20.83;9.98;;;17.30;99.90;;;;;;5054615;28;20033;-69
2021/05/01 05:52:05;;;;;;;18.17;9.70;;;17.40;99.90;;;;;;5054558;28;20024;-67
2021/05/01 05:54:31;;;;;;;12.88;9.82;;;17.40;99.90;;;;;;5052979;28;20095;-69
2021/05/01 05:56:57;;;;;;;18.02;10.77;;;17.30;99.90;;;;;;5053194;28;20029;-71
2021/05/01 05:59:23;;;;;;;17.90;10.57;;;17.40;99.90;;;;;;5054525;28;20029;-68
2021/05/01 06:01:52;;;;;;;20.92;11.20;;;17.50;99.90;;;;;;5054116;28;20525;-70
2021/05/01 06:04:28;;;;;;;22.73;11.80;;;17.60;99.90;;;;;;5054207;28;20033;-66
2021/05/01 06:07:07;;;;;;;22.55;12.32;;;17.70;99.90;;;;;;5054391;28;20078;-71
2021/05/01 06:09:37;;;;;;;23.15;13.60;;;17.80;99.90;;;;;;5054642;28;20059;-67
2021/05/01 06:12:03;;;;;;;22.00;12.90;;;17.70;99.90;;;;;;5054232;28;20029;-70
2021/05/01 06:14:30;;;;;;;21.98;12.20;;;17.90;99.90;;;;;;5054085;28;20033;-71
2021/05/01 06:16:57;;;;;;;22.98;13.60;;;17.90;99.90;;;;;;5052832;28;20025;-70
2021/05/01 06:19:23;;;;;;;26.92;14.10;;;18.00;99.90;;;;;;5051678;28;20032;-71
2021/05/01 06:21:49;;;;;;;30.48;20.60;;;18.00;99.90;;;;;;5052712;28;20149;-69
2021/05/01 06:24:18;;;;;;;45.45;30.95;;;18.00;99.90;;;;;;5054016;28;20021;-70
2021/05/01 06:26:44;;;;;;;36.75;23.65;;;18.00;99.90;;;;;;5054004;28;20029;-71
2021/05/01 06:29:10;;;;;;;33.88;22.20;;;18.00;99.90;;;;;;5053857;28;20052;-69
2021/05/01 06:31:37;;;;;;;26.20;18.02;;;18.00;99.90;;;;;;5053885;28;20033;-70
2021/05/01 06:34:04;;;;;;;39.17;23.95;;;18.10;99.90;;;;;;5052492;28;20040;-69
2021/05/01 06:36:31;;;;;;;50.10;29.08;;;18.20;99.90;;;;;;5053780;28;20350;-68
2021/05/01 06:39:02;;;;;;;48.78;30.33;;;18.30;99.90;;;;;;5053713;28;20076;-70
2021/05/01 06:41:39;;;;;;;47.65;28.98;;;18.30;99.90;;;;;;5053707;28;20033;-69
2021/05/01 06:44:11;;;;;;;43.10;26.33;;;18.40;99.90;;;;;;5053432;28;20452;-71
2021/05/01 06:46:40;;;;;;;39.58;24.63;;;18.60;99.90;;;;;;5053272;28;20418;-71
2021/05/01 06:49:28;;;;;;;43.38;22.27;;;18.60;99.90;;;;;;5053425;28;20033;-70
2021/05/01 06:52:01;;;;;;;26.98;18.42;;;18.70;99.90;;;;;;5052731;28;20037;-70
2021/05/01 06:54:31;;;;;;;37.28;18.65;;;18.90;99.90;;;;;;5049750;28;20048;-72
2021/05/01 06:56:57;;;;;;;26.02;16.35;;;19.20;99.90;;;;;;5051823;28;20029;-69
2021/05/01 06:59:25;;;;;;;30.48;15.95;;;19.30;99.90;;;;;;5053288;28;20032;-69
2021/05/01 07:01:51;;;;;;;25.60;15.38;;;19.30;99.90;;;;;;5053360;28;20129;-70
2021/05/01 07:04:17;;;;;;;24.20;14.02;;;19.40;99.90;;;;;;5050501;28;20034;-70
2021/05/01 07:06:44;;;;;;;28.95;15.23;;;19.30;99.90;;;;;;5052979;28;20060;-71
2021/05/01 07:09:10;;;;;;;21.42;14.48;;;19.40;99.90;;;;;;5050937;28;20028;-69
2021/05/01 07:11:36;;;;;;;27.42;14.82;;;19.50;99.90;;;;;;5052385;28;20074;-70
2021/05/01 07:14:03;;;;;;;23.38;13.38;;;19.70;99.90;;;;;;5051783;28;20033;-70
2021/05/01 07:16:29;;;;;;;18.30;12.93;;;19.90;99.90;;;;;;5051882;28;20029;-70
2021/05/01 07:18:59;;;;;;;21.40;12.35;;;19.90;99.90;;;;;;5053174;28;20051;-70
2021/05/01 07:21:25;;;;;;;20.77;12.02;;;20.00;99.90;;;;;;5053088;28;20025;-70
2021/05/01 07:23:51;;;;;;;19.35;11.57;;;20.00;99.90;;;;;;5053046;28;20459;-70
2021/05/01 07:26:22;;;;;;;23.65;12.73;;;20.20;99.90;;;;;;5052916;28;20025;-70
2021/05/01 07:28:53;;;;;;;19.80;12.13;;;20.30;99.90;;;;;;5052726;28;20033;-69
2021/05/01 07:31:23;;;;;;;15.32;11.63;;;20.40;99.90;;;;;;5053054;28;20051;-69
2021/05/01 07:33:55;;;;;;;20.27;11.70;;;20.40;99.90;;;;;;5053001;28;20028;-71
2021/05/01 07:36:42;;;;;;;20.42;12.63;;;20.40;99.90;;;;;;5051593;28;20120;-70
2021/05/01 07:39:10;;;;;;;17.00;11.52;;;20.50;99.90;;;;;;5052967;28;20112;-70
2021/05/01 07:41:40;;;;;;;23.38;11.15;;;20.60;99.90;;;;;;5053103;28;20055;-70
2021/05/01 07:44:08;;;;;;;15.68;10.23;;;20.70;99.90;;;;;;5053109;28;20025;-71
2021/05/01 07:46:40;;;;;;;16.65;8.15;;;21.00;99.70;;;;;;5052845;28;20048;-70
2021/05/01 07:49:07;;;;;;;13.93;8.63;;;21.20;98.50;;;;;;5052772;28;20470;-70
2021/05/01 07:51:35;;;;;;;17.13;8.30;;;21.20;98.40;;;;;;5052806;28;20027;-70
2021/05/01 07:54:03;;;;;;;12.50;7.32;;;21.20;98.50;;;;;;5055755;28;20562;-69
2021/05/01 07:56:29;;;;;;;21.00;7.95;;;21.40;99.00;;;;;;5072982;28;20025;-69
2021/05/01 07:59:00;;;;;;;11.23;7.35;;;;;;;;;;5072455;28;20540;-70
2021/05/01 08:01:26;;;;;;;;;;;;;;;;;;5073186;28;20024;-71
2021/05/01 08:03:54;;;;;;;17.88;6.10;;;;;;;;;;5072725;28;19904;-70
2021/05/01 08:06:20;;;;;;;16.75;8.15;;;;;;;;;;5072547;28;20021;-71
2021/05/01 08:08:47;;;;;;;11.90;7.65;;;;;;;;;;5072643;28;20025;-70
2021/05/01 08:11:13;;;;;;;18.27;8.10;;;;;;;;;;5072596;28;20108;-70
2021/05/01 08:13:39;;;;;;;16.60;8.23;;;;;;;;;;5072032;28;20028;-69
2021/05/01 08:16:05;;;;;;;17.10;8.45;;;;;;;;;;5072418;28;20543;-70
2021/05/01 08:18:32;;;;;;;18.40;7.75;;;;;;;;;;5054239;28;20029;-70
2021/05/01 08:20:58;;;;;;;18.75;8.57;;;;;;;;;;5072343;28;20027;-71
2021/05/01 08:23:24;;;;;;;10.65;6.72;;;;;;;;;;5054492;28;20358;-69
2021/05/01 08:25:51;;;;;;;14.85;6.75;;;;;;;;;;5072436;28;20475;-70
2021/05/01 08:28:17;;;;;;;15.57;6.63;;;;;;;;;;5072472;28;20029;-70
2021/05/01 08:30:44;;;;;;;15.55;6.82;;;;;;;;;;5072438;28;20107;-70
2021/05/01 08:33:10;;;;;;;16.33;6.68;;;;;;;;;;5072300;28;20020;-70
2021/05/01 08:35:36;;;;;;;10.48;6.38;;;;;;;;;;5072236;28;20108;-70
2021/05/01 08:38:03;;;;;;;20.15;7.00;;;;;;;;;;5072361;28;20063;-70
2021/05/01 08:40:30;;;;;;;12.35;6.45;;;;;;;;;;5075044;28;20472;-70
2021/05/01 08:42:56;;;;;;;14.98;6.22;;;;;;;;;;5075580;28;20453;-71
2021/05/01 08:45:27;;;;;;;16.23;6.55;;;;;;;;;;5075766;28;20032;-70
2021/05/01 08:47:53;;;;;;;14.55;5.93;;;;;;;;;;5075809;28;20051;-69
2021/05/01 08:50:26;;;;;;;13.30;6.85;;;;;;;;;;5075101;28;20025;-71
2021/05/01 08:52:52;;;;;;;12.73;5.78;;;;;;;;;;5075341;28;20017;-71
2021/05/01 08:55:18;;;;;;;109.10;10.68;;;;;;;;;;5055775;28;20162;-71
2021/05/01 08:57:45;;;;;;;18.90;7.75;;;;;;;;;;5075503;28;20025;-71
2021/05/01 09:00:11;;;;;;;14.40;5.28;;;;;;;;;;5075934;28;20107;-71
2021/05/01 09:02:38;;;;;;;11.23;5.32;;;;;;;;;;5075825;28;20027;-71
2021/05/01 09:05:06;;;;;;;10.23;5.22;;;;;;;;;;5075515;28;20028;-70
2021/05/01 09:07:32;;;;;;;15.13;6.53;;;;;;;;;;5075627;28;20048;-70
2021/05/01 09:10:00;;;;;;;13.73;5.97;;;;;;;;;;5075423;28;20028;-70
2021/05/01 09:12:43;;;;;;;11.60;5.70;;;;;;;;;;5075131;28;20025;-70
2021/05/01 09:15:18;;;;;;;13.35;5.30;;;;;;;;;;5075079;28;20175;-70
2021/05/01 09:17:45;;;;;;;17.35;5.25;;;;;;;;;;5075141;28;20032;-71
2021/05/01 09:20:15;;;;;;;15.82;4.80;;;;;;;;;;5057161;28;20050;-72
2021/05/01 09:22:56;;;;;;;8.93;3.78;;;;;;;;;;5074813;28;20021;-72
2021/05/01 09:25:24;;;;;;;12.77;4.13;;;;;;;;;;5075086;28;20024;-70
2021/05/01 09:28:02;;;;;;;16.02;6.32;;;;;;;;;;5075006;28;20032;-71
2021/05/01 09:30:29;;;;;;;14.15;5.53;;;;;;;;;;5074905;28;20032;-70
2021/05/01 09:33:14;;;;;;;17.95;6.25;;;;;;;;;;5056889;28;20033;-67
2021/05/01 09:35:41;;;;;;;13.35;4.78;;;;;;;;;;5074701;28;20102;-71
2021/05/01 09:38:07;;;;;;;27.15;5.57;;;;;;;;;;5056699;28;20181;-72
2021/05/01 09:40:33;;;;;;;19.75;8.05;;;;;;;;;;5074415;28;20563;-70
2021/05/01 09:43:18;;;;;;;23.65;8.02;;;;;;;;;;5056824;28;20079;-71
2021/05/01 09:45:44;;;;;;;10.38;5.90;;;;;;;;;;5056837;28;20017;-70
2021/05/01 09:48:15;;;;;;;16.02;5.25;;;;;;;;;;5074679;28;20111;-70
2021/05/01 09:50:41;;;;;;;16.55;5.72;;;;;;;;;;5074232;28;20484;-70
2021/05/01 09:53:11;;;;;;;12.77;5.03;;;;;;;;;;5074458;28;20078;-70
2021/05/01 09:55:48;;;;;;;14.82;4.57;;;;;;;;;;5073953;28;20053;-71
2021/05/01 09:58:25;;;;;;;15.35;5.15;;;;;;;;;;5073818;28;20032;-70
2021/05/01 10:00:52;;;;;;;18.27;5.35;;;;;;;;;;5056433;28;20021;-70
2021/05/01 10:03:28;;;;;;;19.17;5.60;;;;;;;;;;5074320;28;20024;-71
2021/05/01 10:05:59;;;;;;;9.77;4.78;;;;;;;;;;5074233;28;20024;-71
2021/05/01 10:08:32;;;;;;;17.25;4.68;;;;;;;;;;5074093;28;20075;-71
2021/05/01 10:11:07;;;;;;;12.60;3.70;;;;;;;;;;5056012;28;20132;-70
2021/05/01 10:13:35;;;;;;;16.70;4.85;;;;;;;;;;5072462;28;20412;-71
2021/05/01 10:16:08;;;;;;;11.80;4.43;;;;;;;;;;5073808;28;20020;-70
2021/05/01 10:18:34;;;;;;;15.85;5.00;;;;;;;;;;5056002;28;20031;-70
2021/05/01 10:21:00;;;;;;;17.02;4.93;;;;;;;;;;5073575;28;20113;-71
2021/05/01 10:23:27;;;;;;;14.05;4.95;;;;;;;;;;5073865;28;20028;-70
2021/05/01 10:25:53;;;;;;;17.60;5.53;;;;;;;;;;5073717;28;20025;-70
2021/05/01 10:28:20;;;;;;;15.98;4.90;;;;;;;;;;5055807;28;20028;-71
2021/05/01 10:30:49;;;;;;;12.65;4.35;;;;;;;;;;5055705;28;20035;-70
2021/05/01 10:33:37;;;;;;;14.43;4.80;;;;;;;;;;5073625;28;20116;-70
2021/05/01 10:36:03;;;;;;;12.90;5.13;;;;;;;;;;5073320;28;20388;-70
2021/05/01 10:38:30;;;;;;;14.60;4.22;;;;;;;;;;5073462;28;20048;-71
2021/05/01 10:40:57;;;;;;;18.27;4.80;;;;;;;;;;5073463;28;20020;-71
2021/05/01 10:43:24;;;;;;;14.02;4.38;;;;;;;;;;5055478;28;20039;-71
2021/05/01 10:46:12;;;;;;;14.18;4.65;;;;;;;;;;5073049;28;20107;-71
2021/05/01 10:48:41;;;;;;;15.13;4.35;;;;;;;;;;5073251;28;20035;-71
2021/05/01 10:51:09;;;;;;;17.15;4.38;;;;;;;;;;5055262;28;20170;-71
2021/05/01 10:53:36;;;;;;;13.93;4.28;;;;;;;;;;5073229;28;20415;-71
2021/05/01 10:56:02;;;;;;;15.10;4.53;;;;;;;;;;5072747;28;20119;-70
2021/05/01 10:58:49;;;;;;;16.05;4.68;;;;;;;;;;5073182;28;20028;-71
2021/05/01 11:01:36;;;;;;;16.40;4.38;;;;;;;;;;5072913;28;20111;-71
2021/05/01 11:04:06;;;;;;;12.75;4.53;;;;;;;;;;5073116;28;20027;-71
2021/05/01 11:06:41;;;;;;;13.85;4.53;;;;;;;;;;5073113;28;20021;-70
2021/05/01 11:09:08;;;;;;;20.98;4.70;;;;;;;;;;5055119;28;20075;-71
2021/05/01 11:11:39;;;;;;;19.60;5.38;;;;;;;;;;5073144;28;20021;-70
2021/05/01 11:14:13;;;;;;;16.57;4.50;;;;;;;;;;5073080;28;20025;-70
2021/05/01 11:16:43;;;;;;;10.15;4.40;;;;;;;;;;5073331;28;20104;-70
2021/05/01 11:19:12;;;;;;;12.27;4.30;;;;;;;;;;5073047;28;20020;-71
2021/05/01 11:21:39;;;;;;;20.20;5.65;;;;;;;;;;5073002;28;20115;-70
2021/05/01 11:24:06;;;;;;;15.38;4.28;;;;;;;;;;5054874;28;20028;-70
2021/05/01 11:26:32;;;;;;;10.25;4.20;;;;;;;;;;5072700;28;20051;-70
2021/05/01 11:28:59;;;;;;;11.43;3.90;;;;;;;;;;5072592;28;20040;-71
2021/05/01 11:31:32;;;;;;;20.15;4.78;;;;;;;;;;5073201;28;20159;-71
2021/05/01 11:34:04;;;;;;;12.63;3.83;;;;;;;;;;5072150;28;20393;-70
2021/05/01 11:36:31;;;;;;;20.13;5.60;;;;;;;;;;5072789;28;20064;-71
2021/05/01 11:38:58;;;;;;;23.25;4.65;;;;;;;;;;5072531;28;20431;-71
2021/05/01 11:41:25;;;;;;;13.00;4.50;;;;;;;;;;5072787;28;20028;-71
2021/05/01 11:43:51;;;;;;;12.95;4.00;;;;;;;;;;5072770;28;20021;-71
2021/05/01 11:46:37;;;;;;;15.93;4.03;;;;;;;;;;5072739;28;20373;-70
2021/05/01 11:49:03;;;;;;;20.63;4.85;;;;;;;;;;5054557;28;20358;-70
2021/05/01 11:51:35;;;;;;;9.88;3.60;;;;;;;;;;5072653;28;20177;-71
2021/05/01 11:54:01;;;;;;;;;;;;;;;;;;5073089;28;20044;-71
2021/05/01 11:56:27;;;;;;;18.30;4.80;;;;;;;;;;5054593;28;19905;-71
2021/05/01 11:59:12;;;;;;;17.08;3.80;;;;;;;;;;5072246;28;20465;-71
2021/05/01 12:01:48;;;;;;;15.40;4.50;;;;;;;;;;5072593;28;20052;-70
2021/05/01 12:04:17;;;;;;;18.60;3.97;;;;;;;;;;5054639;28;20380;-70
2021/05/01 12:06:48;;;;;;;13.27;4.70;;;;;;;;;;5054595;28;20146;-70
2021/05/01 12:09:18;;;;;;;11.77;4.20;;;;;;;;;;5051364;28;20029;-71
2021/05/01 12:11:45;;;;;;;12.75;4.82;;;;;;;;;;5072406;28;20095;-70
2021/05/01 12:14:12;;;;;;;15.27;4.68;;;;;;;;;;5075019;28;20028;-70
2021/05/01 12:16:39;;;;;;;15.32;4.32;;;;;;;;;;5058519;28;20052;-70
2021/05/01 12:19:06;;;;;;;25.20;5.55;;;;;;;;;;5076222;28;20025;-70
2021/05/01 12:21:40;;;;;;;19.92;4.68;;;;;;;;;;5076285;28;20025;-70
2021/05/01 12:24:20;;;;;;;16.10;5.28;;;;;;;;;;5076269;28;20038;-70
2021/05/01 12:26:47;;;;;;;15.52;4.85;;;;;;;;;;5076363;28;20028;-71
2021/05/01 12:29:23;;;;;;;15.98;4.60;;;;;;;;;;5058274;28;20036;-71
2021/05/01 12:31:53;;;;;;;13.75;4.55;;;;;;;;;;5076248;28;20021;-70
2021/05/01 12:34:20;;;;;;;20.05;5.57;;;;;;;;;;5076188;28;20475;-70
2021/05/01 12:36:51;;;;;;;13.40;4.70;;;;;;;;;;5058116;28;20116;-70
2021/05/01 12:39:17;;;;;;;14.70;4.45;;;;;;;;;;5075830;28;20032;-70
2021/05/01 12:41:49;;;;;;;19.00;4.78;;;;;;;;;;5075721;28;20162;-70
2021/05/01 12:44:35;;;;;;;19.02;4.80;;;;;;;;;;5075350;28;20025;-70
2021/05/01 12:47:02;;;;;;;17.70;4.82;;;;;;;;;;5075379;28;20027;-70
2021/05/01 12:49:30;;;;;;;22.67;5.45;;;;;;;;;;5057653;28;20543;-69
2021/05/01 12:51:58;;;;;;;17.10;5.35;;;;;;;;;;5075612;28;20078;-71
2021/05/01 12:54:28;;;;;;;23.73;7.00;;;;;;;;;;5075542;28;20114;-70
2021/05/01 12:56:56;;;;;;;14.95;4.78;;;;;;;;;;5075811;28;20055;-70
2021/05/01 12:59:22;;;;;;;21.60;4.72;;;;;;;;;;5075387;28;20029;-70
2021/05/01 13:02:08;;;;;;;19.40;4.05;;;;;;;;;;5073652;28;20481;-70
2021/05/01 13:04:36;;;;;;;14.55;4.53;;;;;;;;;;5054979;28;20468;-71
2021/05/01 13:07:12;;;;;;;12.20;4.45;;;;;;;;;;5074842;28;20025;-70
2021/05/01 13:09:50;;;;;;;19.85;5.10;;;;;;;;;;5057391;28;20092;-70
2021/05/01 13:12:16;;;;;;;18.58;4.57;;;;;;;;;;5056691;28;20360;-70
2021/05/01 13:14:46;;;;;;;18.73;5.43;;;;;;;;;;5057446;28;20429;-71
2021/05/01 13:17:13;;;;;;;21.40;5.22;;;;;;;;;;5074727;28;20067;-71
2021/05/01 13:19:48;;;;;;;12.20;3.92;;;;;;;;;;5075159;28;20033;-70